Belva, West Virginia
Current Conditions -  °F | °C
As of 7:54 PM on Thursday 27 Nov 2014 (Local Time) from KCRW Reporting Station
Light Snow Light Snow  
Wind Chill: 24°   Ceiling: 5000
Heat Index: 31°   Visibility: 7mi
Dew Point: 25°   Wind: 7mph
Humidity: 79%   Direction: 250°WSW
Pressure: 30.31"   Gusts: 17mph
Location:  38.23°N, 81.19°W
Report Text: KCRW 280054Z 25006G15KT 7SM -SN FEW025 OVC050 M01/M04 A3031 RMK AO2 SLP271 P0000 T10061039
Loading
Personal Weather Stations






























Interactive Weather Map New forecast layout! Learn more

10-Day Weather Forecast

Advertisements
Track Severe Weather on mobile